Time;durP1;ratioP1;P1;durP2;ratioP2;P2;SDS_P1;SDS_P2;PMS_P1;PMS_P2;Temp;Humidity;BMP_temperature;BMP_pressure;BME280_temperature;BME280_humidity;BME280_pressure;Samples;Min_cycle;Max_cycle;Signal;HPM_P1;HPM_P2
2024/01/16 00:00:37;;;;;;;2.63;1.70;;;2.00;99.90;;;;;;5016809;28;20462;-65
2024/01/16 00:03:04;;;;;;;4.37;1.73;;;2.00;99.90;;;;;;5016761;28;20482;-63
2024/01/16 00:05:31;;;;;;;3.37;1.63;;;1.90;99.90;;;;;;5016398;28;20474;-64
2024/01/16 00:07:59;;;;;;;7.30;1.90;;;1.90;99.90;;;;;;5017010;28;20449;-64
2024/01/16 00:10:26;;;;;;;6.37;1.77;;;2.00;99.90;;;;;;5017331;28;20462;-63
2024/01/16 00:12:54;;;;;;;3.83;1.87;;;1.90;99.90;;;;;;5016650;28;20408;-63
2024/01/16 00:15:22;;;;;;;1.60;1.30;;;1.90;99.90;;;;;;5013920;28;20481;-64
2024/01/16 00:17:49;;;;;;;1.50;1.10;;;1.80;99.90;;;;;;5013732;28;20489;-64
2024/01/16 00:20:16;;;;;;;4.27;1.77;;;1.70;99.90;;;;;;5013109;28;20501;-63
2024/01/16 00:22:43;;;;;;;5.00;1.90;;;1.60;99.90;;;;;;5016952;28;20520;-63
2024/01/16 00:25:10;;;;;;;1.57;1.30;;;1.60;99.90;;;;;;5017298;28;20467;-64
2024/01/16 00:27:40;;;;;;;5.00;1.33;;;1.50;99.90;;;;;;5017032;28;20467;-66
2024/01/16 00:30:08;;;;;;;2.67;1.80;;;1.40;99.90;;;;;;5015301;28;20498;-64
2024/01/16 00:32:37;;;;;;;2.93;1.50;;;1.40;99.90;;;;;;5016137;28;20499;-63
2024/01/16 00:35:04;;;;;;;7.70;2.03;;;1.40;99.90;;;;;;5016371;28;20524;-65
2024/01/16 00:37:31;;;;;;;8.13;1.80;;;1.30;99.90;;;;;;5016282;28;20471;-63
2024/01/16 00:39:58;;;;;;;6.77;1.90;;;1.30;99.90;;;;;;5015450;28;20458;-66
2024/01/16 00:42:25;;;;;;;2.63;2.03;;;1.30;99.90;;;;;;5016030;28;20475;-63
2024/01/16 00:45:02;;;;;;;4.47;2.13;;;1.30;99.90;;;;;;5016497;28;20433;-63
2024/01/16 00:47:29;;;;;;;3.47;2.13;;;1.30;99.90;;;;;;5016100;28;20458;-63
2024/01/16 00:50:00;;;;;;;2.23;1.60;;;1.30;99.90;;;;;;5015441;28;20466;-63
2024/01/16 00:52:27;;;;;;;6.57;2.10;;;1.30;99.90;;;;;;5016174;28;20422;-64
2024/01/16 00:54:54;;;;;;;3.60;2.00;;;1.30;99.90;;;;;;5015908;28;20458;-63
2024/01/16 00:57:21;;;;;;;3.87;1.90;;;1.20;99.90;;;;;;5016091;28;20459;-63
2024/01/16 00:59:48;;;;;;;4.43;2.43;;;1.20;99.90;;;;;;5015731;28;20456;-64
2024/01/16 01:02:15;;;;;;;5.03;2.80;;;1.10;99.90;;;;;;5015783;28;20497;-63
2024/01/16 01:04:43;;;;;;;2.50;1.30;;;1.10;99.90;;;;;;5015957;28;20445;-63
2024/01/16 01:07:14;;;;;;;2.50;1.50;;;1.10;99.90;;;;;;5015730;28;20455;-62
2024/01/16 01:09:41;;;;;;;7.03;2.50;;;1.00;99.90;;;;;;5014200;28;20457;-65
2024/01/16 01:12:08;;;;;;;3.63;1.67;;;1.00;99.90;;;;;;5015967;28;20476;-63
2024/01/16 01:14:35;;;;;;;5.33;1.63;;;1.00;99.90;;;;;;5015849;28;20472;-63
2024/01/16 01:17:02;;;;;;;1.90;1.30;;;1.00;99.90;;;;;;5016171;28;20446;-63
2024/01/16 01:19:29;;;;;;;3.67;1.20;;;0.90;99.90;;;;;;5016610;28;20440;-64
2024/01/16 01:21:56;;;;;;;3.53;1.47;;;0.90;99.90;;;;;;5017072;28;20460;-67
2024/01/16 01:24:24;;;;;;;2.57;1.80;;;0.80;99.90;;;;;;5017059;28;20529;-62
2024/01/16 01:26:52;;;;;;;2.17;1.37;;;0.70;99.90;;;;;;5017027;28;20474;-64
2024/01/16 01:29:19;;;;;;;1.27;0.90;;;0.60;99.90;;;;;;5014868;28;20451;-63
2024/01/16 01:31:47;;;;;;;3.23;1.40;;;0.70;99.90;;;;;;5015167;28;20473;-62
2024/01/16 01:34:14;;;;;;;2.90;1.03;;;0.60;99.90;;;;;;5019125;28;20458;-62
2024/01/16 01:36:43;;;;;;;3.17;1.40;;;0.60;99.90;;;;;;5019590;28;20481;-64
2024/01/16 01:39:10;;;;;;;1.73;1.00;;;0.60;99.90;;;;;;5019687;28;20453;-65
2024/01/16 01:41:39;;;;;;;2.30;1.50;;;0.60;99.90;;;;;;5019255;28;20466;-63
2024/01/16 01:44:07;;;;;;;3.30;1.30;;;0.60;99.90;;;;;;5019520;28;20447;-64
2024/01/16 01:46:35;;;;;;;2.20;0.90;;;0.50;99.90;;;;;;5019513;28;20452;-63
2024/01/16 01:49:03;;;;;;;2.00;1.37;;;0.50;99.90;;;;;;5019490;28;20458;-64
2024/01/16 01:51:30;;;;;;;4.00;1.50;;;0.50;99.90;;;;;;5020069;28;20446;-69
2024/01/16 01:53:59;;;;;;;3.23;1.23;;;0.50;99.90;;;;;;5019466;28;20461;-64
2024/01/16 01:56:26;;;;;;;2.60;1.20;;;0.50;99.90;;;;;;5019658;28;20443;-64
2024/01/16 01:58:58;;;;;;;2.10;1.20;;;0.50;99.90;;;;;;5019757;28;20475;-64
2024/01/16 02:01:26;;;;;;;1.60;1.30;;;0.40;99.90;;;;;;5019340;28;20500;-64
2024/01/16 02:03:55;;;;;;;2.30;1.13;;;0.40;99.90;;;;;;5019467;28;20494;-67
2024/01/16 02:06:22;;;;;;;3.53;1.60;;;0.40;99.90;;;;;;5019754;28;20852;-65
2024/01/16 02:08:50;;;;;;;2.07;1.10;;;0.40;99.90;;;;;;5018995;28;20431;-64
2024/01/16 02:11:17;;;;;;;1.10;1.00;;;0.40;99.90;;;;;;5018636;28;20449;-64
2024/01/16 02:13:44;;;;;;;1.40;0.90;;;0.30;99.90;;;;;;5017931;28;20557;-64
2024/01/16 02:16:21;;;;;;;3.27;1.37;;;0.40;99.90;;;;;;5017963;28;20457;-64
2024/01/16 02:18:47;;;;;;;2.20;1.67;;;0.40;99.90;;;;;;5018060;28;20589;-64
2024/01/16 02:21:19;;;;;;;1.43;1.13;;;0.30;99.90;;;;;;5014579;28;21004;-64
2024/01/16 02:23:48;;;;;;;1.90;1.37;;;0.40;99.90;;;;;;5010098;28;20497;-64
2024/01/16 02:26:16;;;;;;;1.60;1.50;;;0.40;99.90;;;;;;5009844;28;20512;-64
2024/01/16 02:28:43;;;;;;;4.37;1.20;;;0.40;99.90;;;;;;5009799;28;20456;-64
2024/01/16 02:31:10;;;;;;;6.20;1.60;;;0.40;99.90;;;;;;5009113;28;20519;-64
2024/01/16 02:33:38;;;;;;;3.00;1.90;;;0.40;99.90;;;;;;5009833;28;20446;-64
2024/01/16 02:36:06;;;;;;;1.87;1.40;;;0.50;99.90;;;;;;5009105;28;20483;-62
2024/01/16 02:38:32;;;;;;;2.50;1.63;;;0.40;99.90;;;;;;5009870;28;20445;-64
2024/01/16 02:41:01;;;;;;;4.03;1.53;;;0.50;99.90;;;;;;5009259;28;20473;-63
2024/01/16 02:43:28;;;;;;;2.60;1.37;;;0.40;99.90;;;;;;5008415;28;20504;-64
2024/01/16 02:45:54;;;;;;;2.47;1.77;;;0.40;99.90;;;;;;5009312;28;20428;-64
2024/01/16 02:48:21;;;;;;;4.07;1.73;;;0.50;99.90;;;;;;5009690;28;20462;-64
2024/01/16 02:50:48;;;;;;;2.90;1.17;;;0.50;99.90;;;;;;5009115;28;20490;-64
2024/01/16 02:53:15;;;;;;;2.17;1.33;;;0.50;99.90;;;;;;5009136;28;20451;-64
2024/01/16 02:55:42;;;;;;;2.40;1.77;;;0.50;99.90;;;;;;5007882;28;20520;-63
2024/01/16 02:58:10;;;;;;;1.60;1.13;;;0.50;99.90;;;;;;5008688;28;20462;-63
2024/01/16 03:00:38;;;;;;;2.80;1.30;;;0.50;99.90;;;;;;5009098;28;20457;-64
2024/01/16 03:03:05;;;;;;;4.43;1.60;;;0.50;99.90;;;;;;5008961;28;20491;-64
2024/01/16 03:05:32;;;;;;;1.30;1.10;;;0.40;99.90;;;;;;5009326;28;20449;-65
2024/01/16 03:07:59;;;;;;;2.23;1.43;;;0.40;99.90;;;;;;5008485;28;21049;-64
2024/01/16 03:10:25;;;;;;;3.20;1.40;;;0.30;99.90;;;;;;5009403;28;20441;-63
2024/01/16 03:12:52;;;;;;;1.93;1.40;;;0.30;99.90;;;;;;5009528;28;20484;-63
2024/01/16 03:15:21;;;;;;;2.90;1.10;;;0.20;99.90;;;;;;5009894;28;20466;-64
2024/01/16 03:17:48;;;;;;;2.33;1.33;;;0.20;99.90;;;;;;5009564;28;20460;-62
2024/01/16 03:20:16;;;;;;;1.23;1.10;;;0.10;99.90;;;;;;5009531;28;20477;-63
2024/01/16 03:22:43;;;;;;;4.80;1.60;;;0.00;99.90;;;;;;5009244;28;20495;-63
2024/01/16 03:25:12;;;;;;;2.07;1.23;;;0.10;99.90;;;;;;5009719;28;20468;-64
2024/01/16 03:27:39;;;;;;;2.80;1.27;;;0.10;99.90;;;;;;5010276;28;20455;-63
2024/01/16 03:30:08;;;;;;;8.03;1.30;;;0.00;99.90;;;;;;5010261;28;21023;-63
2024/01/16 03:32:36;;;;;;;1.87;1.43;;;0.10;99.90;;;;;;5002486;28;20471;-64
2024/01/16 03:35:03;;;;;;;2.10;1.47;;;0.10;99.90;;;;;;5002383;28;20448;-64
2024/01/16 03:37:31;;;;;;;2.70;1.70;;;0.10;99.90;;;;;;5002543;28;20441;-64
2024/01/16 03:39:57;;;;;;;2.90;1.70;;;0.10;99.90;;;;;;5001911;28;20457;-64
2024/01/16 03:42:25;;;;;;;3.40;1.60;;;0.10;99.90;;;;;;5001959;28;20484;-64
2024/01/16 03:44:52;;;;;;;3.47;2.13;;;0.20;99.90;;;;;;5000508;28;20499;-64
2024/01/16 03:47:19;;;;;;;8.13;2.00;;;0.10;99.90;;;;;;4999279;28;20455;-64
2024/01/16 03:49:47;;;;;;;5.43;1.70;;;0.20;99.90;;;;;;4999108;28;20456;-63
2024/01/16 03:52:14;;;;;;;1.70;1.40;;;0.20;99.90;;;;;;4999795;28;20449;-64
2024/01/16 03:54:41;;;;;;;2.10;1.60;;;0.20;99.90;;;;;;4998399;28;20457;-64
2024/01/16 03:57:08;;;;;;;2.53;1.53;;;0.30;99.90;;;;;;4999731;28;20535;-64
2024/01/16 03:59:38;;;;;;;3.63;2.30;;;0.30;99.90;;;;;;4999566;28;20503;-64
2024/01/16 04:02:05;;;;;;;3.97;1.93;;;0.40;99.90;;;;;;4999252;28;20449;-64
2024/01/16 04:04:32;;;;;;;4.33;1.50;;;0.30;99.90;;;;;;4998975;28;20573;-67
2024/01/16 04:07:01;;;;;;;2.90;1.80;;;0.20;99.90;;;;;;4998942;28;20540;-65
2024/01/16 04:09:27;;;;;;;2.43;1.43;;;0.20;99.90;;;;;;4998730;28;20533;-64
2024/01/16 04:11:56;;;;;;;1.87;1.30;;;0.10;99.90;;;;;;4998336;28;20561;-64
2024/01/16 04:14:23;;;;;;;4.53;1.73;;;0.10;99.90;;;;;;4998582;28;20444;-63
2024/01/16 04:16:50;;;;;;;10.47;2.20;;;0.20;99.90;;;;;;4998376;28;20461;-64
2024/01/16 04:19:17;;;;;;;1.97;1.70;;;0.20;99.90;;;;;;4998562;28;20532;-64
2024/01/16 04:21:44;;;;;;;5.63;1.70;;;0.20;99.90;;;;;;4998070;28;20556;-63
2024/01/16 04:24:12;;;;;;;2.03;1.50;;;0.30;99.90;;;;;;4997983;28;20824;-64
2024/01/16 04:26:39;;;;;;;3.07;1.73;;;0.30;99.90;;;;;;4997973;28;20531;-64
2024/01/16 04:29:06;;;;;;;2.70;2.23;;;0.30;99.90;;;;;;4998656;28;20461;-63
2024/01/16 04:31:41;;;;;;;5.70;2.13;;;0.40;99.90;;;;;;5000979;28;20481;-64
2024/01/16 04:34:08;;;;;;;3.13;1.27;;;0.40;99.90;;;;;;4999609;28;20475;-63
2024/01/16 04:36:35;;;;;;;2.23;1.50;;;0.40;99.90;;;;;;4998820;28;20530;-63
2024/01/16 04:39:03;;;;;;;1.90;1.50;;;0.30;99.90;;;;;;4997594;28;20488;-63
2024/01/16 04:41:31;;;;;;;2.20;1.37;;;0.20;99.90;;;;;;4998247;28;20451;-64
2024/01/16 04:43:58;;;;;;;3.17;1.90;;;0.20;99.90;;;;;;5000054;28;20484;-64
2024/01/16 04:46:25;;;;;;;2.70;1.57;;;0.20;99.90;;;;;;5000505;28;20560;-62
2024/01/16 04:48:52;;;;;;;5.80;1.77;;;0.20;99.90;;;;;;4999478;28;20484;-63
2024/01/16 04:51:18;;;;;;;1.87;1.20;;;0.20;99.90;;;;;;4998019;28;20536;-63
2024/01/16 04:53:45;;;;;;;1.53;1.30;;;0.20;99.90;;;;;;4995979;28;20506;-63
2024/01/16 04:56:12;;;;;;;2.80;1.70;;;0.20;99.90;;;;;;4995330;28;20483;-63
2024/01/16 04:58:40;;;;;;;3.00;1.50;;;0.10;99.90;;;;;;4995283;28;20554;-63
2024/01/16 05:01:08;;;;;;;3.07;1.77;;;0.20;99.90;;;;;;4995059;28;20543;-63
2024/01/16 05:03:35;;;;;;;1.83;1.70;;;0.20;99.90;;;;;;4995101;28;20494;-64
2024/01/16 05:06:01;;;;;;;5.77;2.17;;;0.20;99.90;;;;;;4995088;28;20429;-65
2024/01/16 05:08:28;;;;;;;2.27;1.57;;;0.30;99.90;;;;;;4995415;28;20504;-63
2024/01/16 05:10:55;;;;;;;5.10;2.47;;;0.30;99.90;;;;;;4994839;28;20469;-63
2024/01/16 05:13:22;;;;;;;7.13;2.60;;;0.30;99.90;;;;;;4995312;28;20441;-63
2024/01/16 05:15:50;;;;;;;3.43;1.87;;;0.30;99.90;;;;;;4995090;28;20551;-64
2024/01/16 05:18:17;;;;;;;1.70;1.20;;;0.30;99.90;;;;;;4994978;28;20521;-63
2024/01/16 05:20:44;;;;;;;8.03;2.03;;;0.30;99.90;;;;;;4994847;28;20544;-64
2024/01/16 05:23:11;;;;;;;8.67;2.03;;;0.30;99.90;;;;;;4994825;28;20489;-62
2024/01/16 05:25:39;;;;;;;4.37;1.87;;;0.30;99.90;;;;;;4995115;28;20515;-63
2024/01/16 05:28:06;;;;;;;2.70;1.77;;;0.30;99.90;;;;;;4994739;28;20475;-64
2024/01/16 05:30:33;;;;;;;3.77;1.87;;;0.30;99.90;;;;;;4995050;28;20461;-64
2024/01/16 05:33:01;;;;;;;4.70;1.67;;;0.20;99.90;;;;;;4995074;28;20484;-64
2024/01/16 05:35:32;;;;;;;2.90;1.73;;;0.20;99.90;;;;;;4995006;28;20473;-63
2024/01/16 05:37:59;;;;;;;3.37;1.57;;;0.20;99.90;;;;;;4995190;28;20446;-64
2024/01/16 05:40:26;;;;;;;4.00;1.70;;;0.20;99.90;;;;;;4994650;28;20470;-62
2024/01/16 05:42:53;;;;;;;2.47;1.57;;;0.10;99.90;;;;;;4994640;28;20452;-64
2024/01/16 05:45:20;;;;;;;4.20;3.30;;;0.10;99.90;;;;;;4994671;28;21075;-64
2024/01/16 05:47:47;;;;;;;2.90;1.87;;;0.10;99.90;;;;;;4994230;28;20445;-64
2024/01/16 05:50:16;;;;;;;2.87;1.93;;;0.10;99.90;;;;;;4994856;28;20826;-63
2024/01/16 05:52:43;;;;;;;2.17;1.67;;;0.00;99.90;;;;;;4994780;28;20484;-64
2024/01/16 05:55:10;;;;;;;7.23;2.10;;;-0.10;99.90;;;;;;4994859;28;20540;-65
2024/01/16 05:57:37;;;;;;;6.80;2.00;;;-0.10;99.90;;;;;;4994866;28;21100;-62
2024/01/16 06:00:05;;;;;;;5.10;2.20;;;-0.10;99.90;;;;;;4994772;28;20465;-63
2024/01/16 06:02:32;;;;;;;3.20;1.90;;;-0.10;99.90;;;;;;4994767;28;20456;-64
2024/01/16 06:04:59;;;;;;;4.93;1.57;;;-0.20;99.90;;;;;;4994652;28;21074;-63
2024/01/16 06:07:28;;;;;;;4.17;2.03;;;-0.10;99.90;;;;;;4994965;28;20491;-63
2024/01/16 06:09:54;;;;;;;8.87;2.30;;;-0.10;99.90;;;;;;4994472;28;20468;-62
2024/01/16 06:12:21;;;;;;;2.87;2.20;;;-0.20;99.90;;;;;;4994641;28;20502;-63
2024/01/16 06:14:48;;;;;;;3.57;2.00;;;-0.20;99.90;;;;;;4994658;28;20523;-64
2024/01/16 06:17:15;;;;;;;4.07;1.50;;;-0.20;99.90;;;;;;4994649;28;20556;-62
2024/01/16 06:19:42;;;;;;;4.40;2.27;;;-0.30;99.90;;;;;;4997977;28;20544;-64
2024/01/16 06:22:09;;;;;;;2.97;2.20;;;-0.40;99.90;;;;;;4998106;28;20978;-63
2024/01/16 06:24:38;;;;;;;2.97;1.77;;;-0.50;99.90;;;;;;4997819;28;20517;-64
2024/01/16 06:27:09;;;;;;;4.70;2.60;;;-0.50;99.90;;;;;;4997955;28;20867;-65
2024/01/16 06:29:36;;;;;;;5.10;3.90;;;-0.60;99.90;;;;;;4997949;28;20519;-64
2024/01/16 06:32:03;;;;;;;2.90;1.77;;;-0.70;99.90;;;;;;4998115;28;20487;-65
2024/01/16 06:34:30;;;;;;;3.30;2.20;;;-0.70;99.90;;;;;;4997918;28;20563;-63
2024/01/16 06:36:57;;;;;;;4.13;2.90;;;-0.60;99.90;;;;;;4997600;28;20540;-64
2024/01/16 06:39:24;;;;;;;5.27;2.70;;;-0.60;99.90;;;;;;4997963;28;20492;-63
2024/01/16 06:41:52;;;;;;;3.60;2.80;;;-0.60;99.90;;;;;;4997412;28;20562;-63
2024/01/16 06:44:20;;;;;;;3.40;2.67;;;-0.60;99.90;;;;;;4997595;28;20572;-64
2024/01/16 06:46:46;;;;;;;5.27;2.60;;;-0.60;99.90;;;;;;4997568;28;20476;-64
2024/01/16 06:49:13;;;;;;;3.80;2.60;;;-0.60;99.90;;;;;;5001215;28;20475;-64
2024/01/16 06:51:40;;;;;;;3.13;2.60;;;-0.50;99.90;;;;;;5008460;28;20923;-64
2024/01/16 06:54:07;;;;;;;6.80;3.23;;;-0.50;99.90;;;;;;5004343;28;20471;-62
2024/01/16 06:56:34;;;;;;;4.80;3.00;;;-0.40;99.90;;;;;;4998294;28;20529;-62
2024/01/16 06:59:02;;;;;;;6.23;3.10;;;-0.40;99.90;;;;;;5015747;28;20468;-61
2024/01/16 07:01:30;;;;;;;7.33;3.40;;;-0.30;99.90;;;;;;5016186;28;20456;-63
2024/01/16 07:03:57;;;;;;;9.30;3.17;;;-0.30;99.90;;;;;;5005791;28;20469;-62
2024/01/16 07:06:24;;;;;;;4.17;2.67;;;-0.30;99.90;;;;;;5007409;28;20446;-62
2024/01/16 07:08:53;;;;;;;8.53;3.77;;;-0.20;99.90;;;;;;4989134;28;20446;-63
2024/01/16 07:11:20;;;;;;;4.97;3.50;;;-0.10;99.90;;;;;;4983652;28;20473;-64
2024/01/16 07:13:48;;;;;;;9.10;3.47;;;-0.10;99.90;;;;;;4980586;28;20458;-63
2024/01/16 07:16:16;;;;;;;5.40;3.37;;;-0.10;99.90;;;;;;4978788;28;20910;-63
2024/01/16 07:18:46;;;;;;;12.00;4.70;;;-0.10;99.90;;;;;;4978867;28;20502;-63
2024/01/16 07:21:19;;;;;;;3.90;3.00;;;0.00;99.90;;;;;;4980162;28;20446;-63
2024/01/16 07:23:46;;;;;;;6.00;4.17;;;-0.10;99.90;;;;;;4978208;28;20995;-64
2024/01/16 07:26:18;;;;;;;4.17;2.10;;;0.00;99.90;;;;;;4977160;28;20458;-65
2024/01/16 07:28:48;;;;;;;10.20;2.80;;;-0.10;99.90;;;;;;4979815;28;20471;-61
2024/01/16 07:31:17;;;;;;;7.33;3.70;;;-0.10;99.90;;;;;;4996548;28;20431;-63
2024/01/16 07:33:44;;;;;;;3.60;2.90;;;0.00;99.90;;;;;;4995063;28;21085;-62
2024/01/16 07:36:12;;;;;;;6.77;3.27;;;0.00;99.90;;;;;;4989489;28;20523;-62
2024/01/16 07:38:39;;;;;;;7.40;3.80;;;0.10;99.90;;;;;;4977356;28;20487;-63
2024/01/16 07:41:09;;;;;;;5.00;2.23;;;0.10;99.90;;;;;;4978514;28;20520;-64
2024/01/16 07:43:35;;;;;;;4.00;2.73;;;0.10;99.90;;;;;;4984037;28;20501;-64
2024/01/16 07:46:02;;;;;;;4.97;2.87;;;0.10;99.90;;;;;;4976711;28;20474;-64
2024/01/16 07:48:31;;;;;;;4.80;2.97;;;0.20;99.90;;;;;;4976733;28;20457;-63
2024/01/16 07:50:57;;;;;;;4.13;3.10;;;0.20;99.90;;;;;;4976678;28;20452;-64
2024/01/16 07:53:27;;;;;;;4.50;2.30;;;0.30;99.90;;;;;;4978603;28;20545;-62
2024/01/16 07:55:54;;;;;;;5.13;2.63;;;0.30;99.90;;;;;;4982246;28;20460;-63
2024/01/16 07:58:22;;;;;;;7.90;3.70;;;0.30;99.90;;;;;;4995887;28;20561;-63
2024/01/16 08:00:49;;;;;;;5.97;2.40;;;0.20;99.90;;;;;;4996130;28;20517;-64
2024/01/16 08:03:16;;;;;;;7.90;3.67;;;0.30;99.90;;;;;;4996216;28;20786;-63
2024/01/16 08:05:44;;;;;;;3.10;2.77;;;0.40;99.90;;;;;;4995967;28;20521;-63
2024/01/16 08:08:11;;;;;;;3.70;2.13;;;0.40;99.90;;;;;;4996156;28;20865;-63
2024/01/16 08:10:38;;;;;;;4.43;3.70;;;0.40;99.90;;;;;;4995791;28;20507;-63
2024/01/16 08:13:05;;;;;;;4.57;2.83;;;0.50;99.90;;;;;;4996074;28;20830;-63
2024/01/16 08:15:32;;;;;;;8.50;3.30;;;0.50;99.90;;;;;;4995876;28;20548;-64
2024/01/16 08:17:59;;;;;;;4.37;2.90;;;0.50;99.90;;;;;;4995791;28;20492;-63
2024/01/16 08:20:26;;;;;;;4.83;2.97;;;0.50;99.90;;;;;;4995252;28;20450;-63
2024/01/16 08:22:54;;;;;;;7.13;2.97;;;0.50;99.90;;;;;;4995864;28;20452;-63
2024/01/16 08:25:21;;;;;;;8.73;3.43;;;0.70;99.90;;;;;;4995330;28;21023;-62
2024/01/16 08:27:48;;;;;;;4.90;3.40;;;0.70;99.90;;;;;;4995759;28;20476;-63
2024/01/16 08:30:15;;;;;;;4.27;2.80;;;0.60;99.90;;;;;;4995524;28;20536;-63
2024/01/16 08:32:42;;;;;;;10.20;4.20;;;0.60;99.90;;;;;;4975886;28;20473;-64
2024/01/16 08:35:10;;;;;;;4.53;3.10;;;0.60;99.90;;;;;;4976531;28;20542;-64
2024/01/16 08:37:37;;;;;;;8.20;3.40;;;0.70;99.90;;;;;;4976094;28;20477;-62
2024/01/16 08:40:06;;;;;;;3.30;2.77;;;0.70;99.90;;;;;;4975624;28;20469;-61
2024/01/16 08:42:33;;;;;;;7.50;4.07;;;0.70;99.90;;;;;;4976130;28;20469;-63
2024/01/16 08:45:00;;;;;;;11.53;3.13;;;0.70;99.90;;;;;;4975654;28;20543;-63
2024/01/16 08:47:27;;;;;;;4.73;3.13;;;0.80;99.90;;;;;;4995321;28;20433;-63
2024/01/16 08:49:54;;;;;;;6.43;3.00;;;0.90;99.90;;;;;;4996217;28;20473;-62
2024/01/16 08:52:22;;;;;;;4.37;3.40;;;0.90;99.90;;;;;;4996246;28;20448;-64
2024/01/16 08:54:51;;;;;;;4.13;3.37;;;0.90;99.90;;;;;;4995662;28;20458;-63
2024/01/16 08:57:20;;;;;;;5.37;3.20;;;1.00;99.90;;;;;;4998844;28;20440;-60
2024/01/16 08:59:46;;;;;;;11.80;4.10;;;1.00;99.90;;;;;;4999206;28;20436;-64
2024/01/16 09:02:13;;;;;;;5.10;3.50;;;1.00;99.90;;;;;;4999241;28;20431;-63
2024/01/16 09:04:43;;;;;;;7.17;3.13;;;1.00;99.90;;;;;;4999024;28;20458;-64
2024/01/16 09:07:10;;;;;;;9.03;3.63;;;1.10;99.90;;;;;;5013343;28;20433;-61
2024/01/16 09:09:37;;;;;;;8.17;3.73;;;1.10;99.90;;;;;;5006833;28;20410;-63
2024/01/16 09:12:05;;;;;;;8.73;4.90;;;1.20;99.90;;;;;;4999024;28;20469;-61
2024/01/16 09:14:33;;;;;;;12.20;4.20;;;1.20;99.90;;;;;;4999051;28;20431;-63
2024/01/16 09:17:00;;;;;;;6.43;4.47;;;1.30;99.90;;;;;;4999072;28;20452;-64
2024/01/16 09:19:27;;;;;;;6.70;3.50;;;1.40;99.90;;;;;;4999081;28;20449;-63
2024/01/16 09:21:57;;;;;;;9.43;4.03;;;1.40;99.90;;;;;;4998952;28;20426;-63
2024/01/16 09:24:27;;;;;;;5.77;3.10;;;1.50;99.90;;;;;;4998768;28;20460;-63
2024/01/16 09:26:54;;;;;;;10.10;3.73;;;1.50;99.90;;;;;;4998756;28;20436;-63
2024/01/16 09:29:21;;;;;;;5.70;3.80;;;1.50;99.90;;;;;;4997621;28;20500;-62
2024/01/16 09:31:49;;;;;;;7.40;3.33;;;1.60;99.90;;;;;;4995248;28;20455;-63
2024/01/16 09:34:18;;;;;;;6.80;3.80;;;1.60;99.90;;;;;;4996068;28;20488;-63
2024/01/16 09:36:46;;;;;;;6.93;3.60;;;1.60;99.90;;;;;;4995976;28;20467;-64
2024/01/16 09:39:13;;;;;;;5.67;3.40;;;1.70;99.90;;;;;;4995691;28;20454;-63
2024/01/16 09:41:41;;;;;;;6.83;3.10;;;1.70;99.90;;;;;;4993759;28;20482;-63
2024/01/16 09:44:08;;;;;;;6.57;4.57;;;1.70;99.90;;;;;;4979878;28;20457;-63
2024/01/16 09:46:38;;;;;;;5.73;4.00;;;1.80;99.90;;;;;;4978585;28;20504;-62
2024/01/16 09:49:07;;;;;;;5.63;3.77;;;1.80;99.90;;;;;;4986231;28;20462;-63
2024/01/16 09:51:34;;;;;;;8.57;5.30;;;1.80;99.90;;;;;;4987002;28;20480;-63
2024/01/16 09:54:06;;;;;;;10.63;5.40;;;1.80;99.90;;;;;;5032744;23;21168;-62
2024/01/16 09:56:33;;;;;;;7.23;4.83;;;1.80;99.90;;;;;;5035196;28;20478;-63
2024/01/16 09:59:13;;;;;;;6.03;4.27;;;2.00;99.90;;;;;;5035999;28;20448;-61
2024/01/16 10:01:41;;;;;;;6.47;4.40;;;2.10;99.90;;;;;;5036263;28;20897;-64
2024/01/16 10:04:11;;;;;;;6.47;4.80;;;2.20;99.90;;;;;;5038345;28;20441;-63
2024/01/16 10:06:42;;;;;;;8.33;3.70;;;2.10;99.90;;;;;;5038648;28;20497;-64
2024/01/16 10:09:12;;;;;;;5.80;4.30;;;2.10;99.90;;;;;;5038575;28;20449;-63
2024/01/16 10:11:39;;;;;;;5.20;3.70;;;2.20;99.90;;;;;;5036653;28;20498;-63
2024/01/16 10:14:06;;;;;;;6.87;3.83;;;2.20;99.90;;;;;;5031341;28;20494;-65
2024/01/16 10:17:18;;;;;;;5.60;3.97;;;2.30;99.90;;;;;;5034111;28;20437;-64
2024/01/16 10:19:52;;;;;;;5.30;3.97;;;2.30;99.90;;;;;;5007812;28;20496;-63
2024/01/16 10:22:24;;;;;;;8.13;3.97;;;2.30;99.90;;;;;;5038376;28;20411;-63
2024/01/16 10:25:04;;;;;;;6.30;3.20;;;2.40;99.90;;;;;;5037690;28;20509;-66
2024/01/16 10:27:34;;;;;;;6.43;4.00;;;2.40;99.90;;;;;;5037547;28;20422;-63
2024/01/16 10:30:03;;;;;;;5.73;4.00;;;2.40;99.90;;;;;;5037802;28;20477;-63
2024/01/16 10:32:33;;;;;;;4.53;3.33;;;2.40;99.90;;;;;;5037188;28;20427;-64
2024/01/16 10:35:05;;;;;;;7.27;4.80;;;2.50;99.90;;;;;;5037735;28;20442;-62
2024/01/16 10:37:41;;;;;;;7.97;4.10;;;2.60;99.90;;;;;;5037701;28;20920;-63
2024/01/16 10:40:09;;;;;;;5.23;3.33;;;2.70;99.90;;;;;;5038234;28;20450;-64
2024/01/16 10:42:36;;;;;;;6.13;4.53;;;2.60;99.90;;;;;;5038111;28;20676;-63
2024/01/16 10:45:07;;;;;;;8.33;3.33;;;2.60;99.90;;;;;;5038001;28;20477;-64
2024/01/16 10:47:36;;;;;;;7.60;3.97;;;2.60;99.90;;;;;;5037864;28;20493;-63
2024/01/16 10:50:09;;;;;;;12.00;3.70;;;2.70;99.90;;;;;;5038444;28;20453;-65
2024/01/16 10:52:40;;;;;;;5.97;3.97;;;2.70;99.90;;;;;;5040083;28;20472;-64
2024/01/16 10:55:09;;;;;;;5.50;3.10;;;2.70;99.90;;;;;;5040443;28;20459;-64
2024/01/16 10:57:41;;;;;;;7.40;2.93;;;2.70;99.90;;;;;;5040437;28;20423;-65
2024/01/16 11:00:14;;;;;;;3.77;2.97;;;2.70;99.90;;;;;;5040625;28;20439;-65
2024/01/16 11:02:49;;;;;;;5.20;3.10;;;2.80;99.90;;;;;;5040447;28;20513;-65
2024/01/16 11:05:33;;;;;;;4.30;2.30;;;2.80;99.90;;;;;;5040207;28;20451;-65
2024/01/16 11:08:02;;;;;;;3.90;2.97;;;2.80;99.90;;;;;;5040514;28;20477;-63
2024/01/16 11:10:29;;;;;;;9.10;2.53;;;2.70;99.90;;;;;;5040297;28;20483;-65
2024/01/16 11:13:02;;;;;;;4.90;2.40;;;2.70;99.90;;;;;;5030760;28;20438;-66
2024/01/16 11:15:29;;;;;;;4.57;1.70;;;2.60;99.90;;;;;;5019247;28;20471;-65
2024/01/16 11:17:57;;;;;;;2.50;1.77;;;2.50;99.90;;;;;;5017288;28;20457;-66
2024/01/16 11:20:28;;;;;;;3.57;1.50;;;2.50;99.90;;;;;;5016791;28;20478;-64
2024/01/16 11:22:59;;;;;;;2.93;1.97;;;2.50;99.90;;;;;;5018744;28;20443;-65
2024/01/16 11:25:37;;;;;;;4.43;2.10;;;2.40;99.90;;;;;;5018637;28;20471;-66
2024/01/16 11:28:11;;;;;;;6.63;1.50;;;2.40;99.90;;;;;;5018288;28;20466;-64
2024/01/16 11:30:42;;;;;;;4.10;2.10;;;2.40;99.90;;;;;;5018418;28;20456;-65
2024/01/16 11:33:45;;;;;;;4.20;1.70;;;2.40;99.90;;;;;;5018370;28;20525;-66
2024/01/16 11:36:55;;;;;;;3.47;1.90;;;2.30;99.90;;;;;;5017837;28;20454;-64
2024/01/16 11:39:24;;;;;;;3.03;1.57;;;2.30;99.90;;;;;;5018042;28;20435;-65
2024/01/16 11:42:02;;;;;;;3.00;2.13;;;2.30;99.90;;;;;;5017978;28;20436;-65
2024/01/16 11:44:43;;;;;;;19.17;8.33;;;2.30;99.90;;;;;;5017727;28;20474;-65
2024/01/16 11:47:16;;;;;;;12.90;2.77;;;2.30;99.90;;;;;;5018049;28;20464;-65
2024/01/16 11:49:44;;;;;;;5.97;2.80;;;2.30;99.90;;;;;;5017622;28;20984;-64
2024/01/16 11:52:16;;;;;;;4.97;2.73;;;2.30;99.90;;;;;;5017558;28;20443;-64
2024/01/16 11:54:43;;;;;;;6.10;2.80;;;2.30;99.90;;;;;;5016892;28;20467;-64
2024/01/16 11:57:54;;;;;;;3.33;2.13;;;2.30;99.90;;;;;;5016042;28;20462;-63
2024/01/16 12:00:30;;;;;;;6.43;2.70;;;2.40;99.90;;;;;;5016118;28;20479;-66
2024/01/16 12:02:57;;;;;;;7.20;3.27;;;2.40;99.90;;;;;;5015741;28;20514;-65
2024/01/16 12:05:24;;;;;;;5.23;3.20;;;2.40;99.90;;;;;;5015582;28;20484;-64
2024/01/16 12:07:57;;;;;;;11.00;3.53;;;2.40;99.90;;;;;;5015136;28;20442;-65
2024/01/16 12:10:26;;;;;;;4.60;2.47;;;2.30;99.90;;;;;;5016231;28;20447;-66
2024/01/16 12:12:59;;;;;;;14.23;3.70;;;2.40;99.90;;;;;;5018378;28;20496;-63
2024/01/16 12:15:25;;;;;;;5.10;3.03;;;2.40;99.90;;;;;;5035406;28;20465;-66
2024/01/16 12:17:57;;;;;;;10.63;4.47;;;2.50;99.90;;;;;;5035912;28;20487;-65
2024/01/16 12:20:28;;;;;;;4.90;2.83;;;2.60;99.90;;;;;;5035397;28;20450;-66
2024/01/16 12:22:57;;;;;;;10.97;3.23;;;2.60;99.90;;;;;;5034980;28;20489;-67
2024/01/16 12:25:24;;;;;;;10.77;3.03;;;2.60;99.90;;;;;;5035653;28;20680;-65
2024/01/16 12:28:01;;;;;;;6.77;3.37;;;2.50;99.90;;;;;;5036047;28;20517;-65
2024/01/16 12:30:32;;;;;;;5.80;3.40;;;2.60;99.90;;;;;;5035976;28;20462;-64
2024/01/16 12:33:09;;;;;;;5.63;3.20;;;2.50;99.90;;;;;;5036085;28;20420;-64
2024/01/16 12:35:36;;;;;;;7.50;3.43;;;2.40;99.90;;;;;;5035717;28;20480;-66
2024/01/16 12:38:09;;;;;;;4.73;3.50;;;2.40;99.90;;;;;;5036162;28;20425;-65
2024/01/16 12:40:41;;;;;;;6.50;2.90;;;2.40;99.90;;;;;;5035910;28;20448;-65
2024/01/16 12:43:11;;;;;;;15.67;4.13;;;2.40;99.90;;;;;;5023629;28;20501;-65
2024/01/16 12:45:40;;;;;;;3.83;3.13;;;2.40;99.90;;;;;;5020735;28;20472;-65
2024/01/16 12:48:13;;;;;;;6.47;3.67;;;2.40;99.90;;;;;;5025111;28;20566;-65
2024/01/16 12:50:40;;;;;;;16.40;4.00;;;2.40;99.90;;;;;;5017939;28;20676;-64
2024/01/16 12:53:09;;;;;;;7.40;3.57;;;2.80;99.90;;;;;;5025807;28;20433;-64
2024/01/16 12:55:37;;;;;;;19.20;4.10;;;3.40;99.90;;;;;;5028882;28;20450;-65
2024/01/16 12:58:15;;;;;;;6.93;2.80;;;3.30;99.90;;;;;;5013754;28;20466;-65
2024/01/16 13:00:42;;;;;;;6.70;3.47;;;3.20;99.90;;;;;;5014434;28;20505;-64
2024/01/16 13:03:15;;;;;;;12.83;2.67;;;3.00;99.90;;;;;;5015004;28;20904;-64